sensor_id;sensor_type;location;lat;lon;timestamp;temperature;humidity
4604;DHT22;2314;48.272;11.562;2023-02-28T00:00:37;-2.10;99.90
4604;DHT22;2314;48.272;11.562;2023-02-28T00:03:05;-2.20;99.90
4604;DHT22;2314;48.272;11.562;2023-02-28T00:05:32;-2.20;99.90
4604;DHT22;2314;48.272;11.562;2023-02-28T00:08:00;-2.30;99.90
4604;DHT22;2314;48.272;11.562;2023-02-28T00:10:29;-2.30;99.90
4604;DHT22;2314;48.272;11.562;2023-02-28T00:13:00;-2.30;99.90
4604;DHT22;2314;48.272;11.562;2023-02-28T00:15:32;-2.40;99.90
4604;DHT22;2314;48.272;11.562;2023-02-28T00:18:00;-2.40;99.90
4604;DHT22;2314;48.272;11.562;2023-02-28T00:20:27;-2.50;99.90
4604;DHT22;2314;48.272;11.562;2023-02-28T00:22:55;-2.50;99.90
4604;DHT22;2314;48.272;11.562;2023-02-28T00:25:24;-2.50;99.90
4604;DHT22;2314;48.272;11.562;2023-02-28T00:27:51;-2.50;99.90
4604;DHT22;2314;48.272;11.562;2023-02-28T00:30:20;-2.50;99.90
4604;DHT22;2314;48.272;11.562;2023-02-28T00:32:50;-2.60;99.90
4604;DHT22;2314;48.272;11.562;2023-02-28T00:35:17;-2.60;99.90
4604;DHT22;2314;48.272;11.562;2023-02-28T00:37:44;-2.60;99.90
4604;DHT22;2314;48.272;11.562;2023-02-28T00:40:11;-2.70;99.90
4604;DHT22;2314;48.272;11.562;2023-02-28T00:42:39;-2.70;99.90
4604;DHT22;2314;48.272;11.562;2023-02-28T00:45:07;-2.80;99.90
4604;DHT22;2314;48.272;11.562;2023-02-28T00:47:35;-2.80;99.90
4604;DHT22;2314;48.272;11.562;2023-02-28T00:50:04;-2.80;99.90
4604;DHT22;2314;48.272;11.562;2023-02-28T00:52:32;-2.80;99.90
4604;DHT22;2314;48.272;11.562;2023-02-28T00:54:59;-2.80;99.90
4604;DHT22;2314;48.272;11.562;2023-02-28T00:57:26;-2.90;99.90
4604;DHT22;2314;48.272;11.562;2023-02-28T00:59:53;-2.90;99.90
4604;DHT22;2314;48.272;11.562;2023-02-28T01:02:20;-2.90;99.90
4604;DHT22;2314;48.272;11.562;2023-02-28T01:04:47;-2.90;99.90
4604;DHT22;2314;48.272;11.562;2023-02-28T01:07:16;-2.90;99.90
4604;DHT22;2314;48.272;11.562;2023-02-28T01:09:43;-2.90;99.90
4604;DHT22;2314;48.272;11.562;2023-02-28T01:12:10;-2.90;99.90
4604;DHT22;2314;48.272;11.562;2023-02-28T01:14:37;-3.00;99.90
4604;DHT22;2314;48.272;11.562;2023-02-28T01:17:04;-3.00;99.90
4604;DHT22;2314;48.272;11.562;2023-02-28T01:19:31;-3.00;99.90
4604;DHT22;2314;48.272;11.562;2023-02-28T01:22:01;-3.00;99.90
4604;DHT22;2314;48.272;11.562;2023-02-28T01:24:30;-3.00;99.90
4604;DHT22;2314;48.272;11.562;2023-02-28T01:26:57;-3.00;99.90
4604;DHT22;2314;48.272;11.562;2023-02-28T01:29:24;-3.00;99.90
4604;DHT22;2314;48.272;11.562;2023-02-28T01:31:51;-3.10;99.90
4604;DHT22;2314;48.272;11.562;2023-02-28T01:34:18;-3.10;99.90
4604;DHT22;2314;48.272;11.562;2023-02-28T01:36:45;-3.10;99.90
4604;DHT22;2314;48.272;11.562;2023-02-28T01:39:12;-3.20;99.90
4604;DHT22;2314;48.272;11.562;2023-02-28T01:41:41;-3.20;99.90
4604;DHT22;2314;48.272;11.562;2023-02-28T01:47:29;-3.20;99.90
4604;DHT22;2314;48.272;11.562;2023-02-28T01:49:58;-3.20;99.90
4604;DHT22;2314;48.272;11.562;2023-02-28T01:52:28;-3.20;99.90
4604;DHT22;2314;48.272;11.562;2023-02-28T01:54:56;-3.20;99.90
4604;DHT22;2314;48.272;11.562;2023-02-28T01:57:30;-3.30;99.90
4604;DHT22;2314;48.272;11.562;2023-02-28T02:00:07;-3.30;99.90
4604;DHT22;2314;48.272;11.562;2023-02-28T02:02:38;-3.30;99.90
4604;DHT22;2314;48.272;11.562;2023-02-28T02:05:08;-3.40;99.90
4604;DHT22;2314;48.272;11.562;2023-02-28T02:07:38;-3.40;99.90
4604;DHT22;2314;48.272;11.562;2023-02-28T02:10:11;-3.40;99.90
4604;DHT22;2314;48.272;11.562;2023-02-28T02:13:10;-3.40;99.90
4604;DHT22;2314;48.272;11.562;2023-02-28T02:15:47;-3.40;99.90
4604;DHT22;2314;48.272;11.562;2023-02-28T02:18:26;-3.40;99.90
4604;DHT22;2314;48.272;11.562;2023-02-28T02:24:38;-3.40;99.90
4604;DHT22;2314;48.272;11.562;2023-02-28T02:27:33;-3.40;99.90
4604;DHT22;2314;48.272;11.562;2023-02-28T02:30:30;-3.40;99.90
4604;DHT22;2314;48.272;11.562;2023-02-28T02:33:30;-3.40;99.90
4604;DHT22;2314;48.272;11.562;2023-02-28T02:36:13;-3.40;99.90
4604;DHT22;2314;48.272;11.562;2023-02-28T02:38:48;-3.40;99.90
4604;DHT22;2314;48.272;11.562;2023-02-28T02:41:24;-3.40;99.90
4604;DHT22;2314;48.272;11.562;2023-02-28T02:43:58;-3.30;99.90
4604;DHT22;2314;48.272;11.562;2023-02-28T02:46:31;-3.40;99.90
4604;DHT22;2314;48.272;11.562;2023-02-28T02:49:03;-3.30;99.90
4604;DHT22;2314;48.272;11.562;2023-02-28T02:51:35;-3.30;99.90
4604;DHT22;2314;48.272;11.562;2023-02-28T02:54:08;-3.30;99.90
4604;DHT22;2314;48.272;11.562;2023-02-28T02:56:39;-3.30;99.90
4604;DHT22;2314;48.272;11.562;2023-02-28T02:59:11;-3.30;99.90
4604;DHT22;2314;48.272;11.562;2023-02-28T03:01:40;-3.30;99.90
4604;DHT22;2314;48.272;11.562;2023-02-28T03:04:09;-3.30;99.90
4604;DHT22;2314;48.272;11.562;2023-02-28T03:06:39;-3.30;99.90
4604;DHT22;2314;48.272;11.562;2023-02-28T03:09:06;-3.20;99.90
4604;DHT22;2314;48.272;11.562;2023-02-28T03:11:35;-3.20;99.90
4604;DHT22;2314;48.272;11.562;2023-02-28T03:14:15;-3.20;99.90
4604;DHT22;2314;48.272;11.562;2023-02-28T03:17:23;-3.10;99.90
4604;DHT22;2314;48.272;11.562;2023-02-28T03:20:04;-3.10;99.90
4604;DHT22;2314;48.272;11.562;2023-02-28T03:22:46;-3.00;99.90
4604;DHT22;2314;48.272;11.562;2023-02-28T03:25:22;-3.00;99.90
4604;DHT22;2314;48.272;11.562;2023-02-28T03:28:02;-3.00;99.90
4604;DHT22;2314;48.272;11.562;2023-02-28T03:30:40;-2.90;99.90
4604;DHT22;2314;48.272;11.562;2023-02-28T03:33:12;-3.00;99.90
4604;DHT22;2314;48.272;11.562;2023-02-28T03:35:43;-2.90;99.90
4604;DHT22;2314;48.272;11.562;2023-02-28T03:38:18;-2.90;99.90
4604;DHT22;2314;48.272;11.562;2023-02-28T03:40:51;-2.90;99.90
4604;DHT22;2314;48.272;11.562;2023-02-28T03:43:26;-2.90;99.90
4604;DHT22;2314;48.272;11.562;2023-02-28T03:45:55;-2.90;99.90
4604;DHT22;2314;48.272;11.562;2023-02-28T03:48:27;-2.90;99.90
4604;DHT22;2314;48.272;11.562;2023-02-28T03:50:58;-2.90;99.90
4604;DHT22;2314;48.272;11.562;2023-02-28T03:53:29;-2.80;99.90
4604;DHT22;2314;48.272;11.562;2023-02-28T03:56:02;-2.80;99.90
4604;DHT22;2314;48.272;11.562;2023-02-28T03:58:37;-2.80;99.90
4604;DHT22;2314;48.272;11.562;2023-02-28T04:01:13;-2.70;99.90
4604;DHT22;2314;48.272;11.562;2023-02-28T04:03:42;-2.70;99.90
4604;DHT22;2314;48.272;11.562;2023-02-28T04:06:14;-2.70;99.90
4604;DHT22;2314;48.272;11.562;2023-02-28T04:08:44;-2.60;99.90
4604;DHT22;2314;48.272;11.562;2023-02-28T04:11:20;-2.60;99.90
4604;DHT22;2314;48.272;11.562;2023-02-28T04:13:49;-2.60;99.90
4604;DHT22;2314;48.272;11.562;2023-02-28T04:16:16;-2.50;99.90
4604;DHT22;2314;48.272;11.562;2023-02-28T04:18:43;-2.50;99.90
4604;DHT22;2314;48.272;11.562;2023-02-28T04:21:10;-2.50;99.90
4604;DHT22;2314;48.272;11.562;2023-02-28T04:23:38;-2.50;99.90
4604;DHT22;2314;48.272;11.562;2023-02-28T04:26:06;-2.50;99.90
4604;DHT22;2314;48.272;11.562;2023-02-28T04:28:33;-2.50;99.90
4604;DHT22;2314;48.272;11.562;2023-02-28T04:31:03;-2.50;99.90
4604;DHT22;2314;48.272;11.562;2023-02-28T04:33:32;-2.50;99.90
4604;DHT22;2314;48.272;11.562;2023-02-28T04:36:01;-2.50;99.90
4604;DHT22;2314;48.272;11.562;2023-02-28T04:38:29;-2.50;99.90
4604;DHT22;2314;48.272;11.562;2023-02-28T04:41:00;-2.40;99.90
4604;DHT22;2314;48.272;11.562;2023-02-28T04:43:29;-2.40;99.90
4604;DHT22;2314;48.272;11.562;2023-02-28T04:45:58;-2.40;99.90
4604;DHT22;2314;48.272;11.562;2023-02-28T04:48:29;-2.40;99.90
4604;DHT22;2314;48.272;11.562;2023-02-28T04:51:00;-2.40;99.90
4604;DHT22;2314;48.272;11.562;2023-02-28T04:53:27;-2.40;99.90
4604;DHT22;2314;48.272;11.562;2023-02-28T04:55:55;-2.40;99.90
4604;DHT22;2314;48.272;11.562;2023-02-28T04:58:22;-2.40;99.90
4604;DHT22;2314;48.272;11.562;2023-02-28T05:00:51;-2.40;99.90
4604;DHT22;2314;48.272;11.562;2023-02-28T05:03:19;-2.40;99.90
4604;DHT22;2314;48.272;11.562;2023-02-28T05:05:47;-2.40;99.90
4604;DHT22;2314;48.272;11.562;2023-02-28T05:08:14;-2.40;99.90
4604;DHT22;2314;48.272;11.562;2023-02-28T05:10:41;-2.40;99.90
4604;DHT22;2314;48.272;11.562;2023-02-28T05:13:10;-2.30;99.90
4604;DHT22;2314;48.272;11.562;2023-02-28T05:15:38;-2.30;99.90
4604;DHT22;2314;48.272;11.562;2023-02-28T05:18:08;-2.30;99.90
4604;DHT22;2314;48.272;11.562;2023-02-28T05:20:36;-2.30;99.90
4604;DHT22;2314;48.272;11.562;2023-02-28T05:23:11;-2.30;99.90
4604;DHT22;2314;48.272;11.562;2023-02-28T05:25:39;-2.30;99.90
4604;DHT22;2314;48.272;11.562;2023-02-28T05:28:07;-2.40;99.90
4604;DHT22;2314;48.272;11.562;2023-02-28T05:30:34;-2.40;99.90
4604;DHT22;2314;48.272;11.562;2023-02-28T05:33:01;-2.30;99.90
4604;DHT22;2314;48.272;11.562;2023-02-28T05:35:29;-2.30;99.90
4604;DHT22;2314;48.272;11.562;2023-02-28T05:37:56;-2.30;99.90
4604;DHT22;2314;48.272;11.562;2023-02-28T05:40:23;-2.30;99.90
4604;DHT22;2314;48.272;11.562;2023-02-28T05:42:50;-2.30;99.90
4604;DHT22;2314;48.272;11.562;2023-02-28T05:45:17;-2.30;99.90
4604;DHT22;2314;48.272;11.562;2023-02-28T05:47:44;-2.40;99.90
4604;DHT22;2314;48.272;11.562;2023-02-28T05:50:11;-2.40;99.90
4604;DHT22;2314;48.272;11.562;2023-02-28T05:52:40;-2.40;99.90
4604;DHT22;2314;48.272;11.562;2023-02-28T05:55:08;-2.40;99.90
4604;DHT22;2314;48.272;11.562;2023-02-28T05:57:35;-2.40;99.90
4604;DHT22;2314;48.272;11.562;2023-02-28T06:00:03;-2.40;99.90
4604;DHT22;2314;48.272;11.562;2023-02-28T06:02:30;-2.30;99.90
4604;DHT22;2314;48.272;11.562;2023-02-28T06:04:58;-2.30;99.90
4604;DHT22;2314;48.272;11.562;2023-02-28T06:07:25;-2.40;99.90
4604;DHT22;2314;48.272;11.562;2023-02-28T06:09:53;-2.40;99.90
4604;DHT22;2314;48.272;11.562;2023-02-28T06:12:21;-2.40;99.90
4604;DHT22;2314;48.272;11.562;2023-02-28T06:14:48;-2.40;99.90
4604;DHT22;2314;48.272;11.562;2023-02-28T06:17:15;-2.30;99.90
4604;DHT22;2314;48.272;11.562;2023-02-28T06:19:42;-2.40;99.90
4604;DHT22;2314;48.272;11.562;2023-02-28T06:22:09;-2.30;99.90
4604;DHT22;2314;48.272;11.562;2023-02-28T06:24:36;-2.30;99.90
4604;DHT22;2314;48.272;11.562;2023-02-28T06:27:05;-2.30;99.90
4604;DHT22;2314;48.272;11.562;2023-02-28T06:29:32;-2.20;99.90
4604;DHT22;2314;48.272;11.562;2023-02-28T06:31:59;-2.20;99.90
4604;DHT22;2314;48.272;11.562;2023-02-28T06:34:26;-2.10;99.90
4604;DHT22;2314;48.272;11.562;2023-02-28T06:36:54;-2.10;99.90
4604;DHT22;2314;48.272;11.562;2023-02-28T06:39:21;-2.20;99.90
4604;DHT22;2314;48.272;11.562;2023-02-28T06:41:48;-2.20;99.90
4604;DHT22;2314;48.272;11.562;2023-02-28T06:44:19;-2.20;99.90
4604;DHT22;2314;48.272;11.562;2023-02-28T06:46:46;-2.20;99.90
4604;DHT22;2314;48.272;11.562;2023-02-28T06:49:13;-2.20;99.90
4604;DHT22;2314;48.272;11.562;2023-02-28T06:51:42;-2.20;99.90
4604;DHT22;2314;48.272;11.562;2023-02-28T06:54:11;-2.10;99.90
4604;DHT22;2314;48.272;11.562;2023-02-28T06:56:39;-2.20;99.90
4604;DHT22;2314;48.272;11.562;2023-02-28T06:59:06;-2.10;99.90
4604;DHT22;2314;48.272;11.562;2023-02-28T07:01:34;-2.00;99.90
4604;DHT22;2314;48.272;11.562;2023-02-28T07:04:02;-2.10;99.90
4604;DHT22;2314;48.272;11.562;2023-02-28T07:06:29;-2.00;99.90
4604;DHT22;2314;48.272;11.562;2023-02-28T07:08:56;-2.00;99.90
4604;DHT22;2314;48.272;11.562;2023-02-28T07:11:25;-2.00;99.90
4604;DHT22;2314;48.272;11.562;2023-02-28T07:13:53;-2.00;99.90
4604;DHT22;2314;48.272;11.562;2023-02-28T07:16:21;-2.00;99.90
4604;DHT22;2314;48.272;11.562;2023-02-28T07:18:52;-1.90;99.90
4604;DHT22;2314;48.272;11.562;2023-02-28T07:21:19;-1.80;99.90
4604;DHT22;2314;48.272;11.562;2023-02-28T07:23:47;-1.80;99.90
4604;DHT22;2314;48.272;11.562;2023-02-28T07:26:16;-1.80;99.90
4604;DHT22;2314;48.272;11.562;2023-02-28T07:28:46;-1.70;99.90
4604;DHT22;2314;48.272;11.562;2023-02-28T07:31:15;-1.80;99.90
4604;DHT22;2314;48.272;11.562;2023-02-28T07:33:43;-1.70;99.90
4604;DHT22;2314;48.272;11.562;2023-02-28T07:36:14;-1.70;99.90
4604;DHT22;2314;48.272;11.562;2023-02-28T07:38:45;-1.60;99.90
4604;DHT22;2314;48.272;11.562;2023-02-28T07:41:14;-1.60;99.90
4604;DHT22;2314;48.272;11.562;2023-02-28T07:43:42;-1.50;99.90
4604;DHT22;2314;48.272;11.562;2023-02-28T07:46:11;-1.50;99.90
4604;DHT22;2314;48.272;11.562;2023-02-28T07:48:40;-1.50;99.90
4604;DHT22;2314;48.272;11.562;2023-02-28T07:51:08;-1.40;99.90
4604;DHT22;2314;48.272;11.562;2023-02-28T07:53:36;-1.40;99.90
4604;DHT22;2314;48.272;11.562;2023-02-28T07:56:03;-1.30;99.90
4604;DHT22;2314;48.272;11.562;2023-02-28T07:58:31;-1.30;99.90
4604;DHT22;2314;48.272;11.562;2023-02-28T08:01:05;-1.40;99.90
4604;DHT22;2314;48.272;11.562;2023-02-28T08:03:33;-1.30;99.90
4604;DHT22;2314;48.272;11.562;2023-02-28T08:06:01;-1.30;99.90
4604;DHT22;2314;48.272;11.562;2023-02-28T08:08:28;-1.20;99.90
4604;DHT22;2314;48.272;11.562;2023-02-28T08:10:59;-1.20;99.90
4604;DHT22;2314;48.272;11.562;2023-02-28T08:13:27;-1.20;99.90
4604;DHT22;2314;48.272;11.562;2023-02-28T08:15:55;-1.10;99.90
4604;DHT22;2314;48.272;11.562;2023-02-28T08:18:23;-1.00;99.90
4604;DHT22;2314;48.272;11.562;2023-02-28T08:20:50;-0.90;99.90
4604;DHT22;2314;48.272;11.562;2023-02-28T08:23:17;-0.90;99.90
4604;DHT22;2314;48.272;11.562;2023-02-28T08:25:44;-1.00;99.90
4604;DHT22;2314;48.272;11.562;2023-02-28T08:28:13;-1.00;99.90
4604;DHT22;2314;48.272;11.562;2023-02-28T08:30:40;-0.90;99.90
4604;DHT22;2314;48.272;11.562;2023-02-28T08:33:07;-0.80;99.90
4604;DHT22;2314;48.272;11.562;2023-02-28T08:35:35;-0.80;99.90
4604;DHT22;2314;48.272;11.562;2023-02-28T08:38:03;-0.70;99.90
4604;DHT22;2314;48.272;11.562;2023-02-28T08:40:30;-0.60;99.90
4604;DHT22;2314;48.272;11.562;2023-02-28T08:42:56;-0.50;99.90
4604;DHT22;2314;48.272;11.562;2023-02-28T08:45:25;-0.50;99.90
4604;DHT22;2314;48.272;11.562;2023-02-28T08:47:54;-0.50;99.90
4604;DHT22;2314;48.272;11.562;2023-02-28T08:50:21;-0.40;99.90
4604;DHT22;2314;48.272;11.562;2023-02-28T08:52:52;-0.50;99.90
4604;DHT22;2314;48.272;11.562;2023-02-28T08:55:19;-0.20;99.90
4604;DHT22;2314;48.272;11.562;2023-02-28T08:57:46;-0.10;99.90
4604;DHT22;2314;48.272;11.562;2023-02-28T09:00:13;-0.10;99.90
4604;DHT22;2314;48.272;11.562;2023-02-28T09:02:42;0.20;99.90
4604;DHT22;2314;48.272;11.562;2023-02-28T09:05:09;0.10;99.90
4604;DHT22;2314;48.272;11.562;2023-02-28T09:07:36;0.30;99.90
4604;DHT22;2314;48.272;11.562;2023-02-28T09:10:03;0.40;99.90
4604;DHT22;2314;48.272;11.562;2023-02-28T09:12:33;0.40;99.90
4604;DHT22;2314;48.272;11.562;2023-02-28T09:15:01;0.50;99.90
4604;DHT22;2314;48.272;11.562;2023-02-28T09:17:28;0.60;99.90
4604;DHT22;2314;48.272;11.562;2023-02-28T09:19:56;0.70;99.90
4604;DHT22;2314;48.272;11.562;2023-02-28T09:22:23;0.70;99.90
4604;DHT22;2314;48.272;11.562;2023-02-28T09:24:51;0.70;99.90
4604;DHT22;2314;48.272;11.562;2023-02-28T09:27:18;0.60;99.90
4604;DHT22;2314;48.272;11.562;2023-02-28T09:29:45;0.50;99.90
4604;DHT22;2314;48.272;11.562;2023-02-28T09:32:12;0.50;99.90
4604;DHT22;2314;48.272;11.562;2023-02-28T09:34:39;0.40;99.90
4604;DHT22;2314;48.272;11.562;2023-02-28T09:37:07;0.50;99.90
4604;DHT22;2314;48.272;11.562;2023-02-28T09:39:34;0.60;99.90
4604;DHT22;2314;48.272;11.562;2023-02-28T09:42:02;0.70;99.90
4604;DHT22;2314;48.272;11.562;2023-02-28T09:44:33;0.70;99.90
4604;DHT22;2314;48.272;11.562;2023-02-28T09:47:08;0.70;99.90
4604;DHT22;2314;48.272;11.562;2023-02-28T09:49:41;0.80;99.90
4604;DHT22;2314;48.272;11.562;2023-02-28T09:52:15;0.90;99.90
4604;DHT22;2314;48.272;11.562;2023-02-28T09:54:45;0.80;99.90
4604;DHT22;2314;48.272;11.562;2023-02-28T09:57:18;1.00;99.90
4604;DHT22;2314;48.272;11.562;2023-02-28T09:59:57;1.40;99.90
4604;DHT22;2314;48.272;11.562;2023-02-28T10:03:14;1.50;99.90
4604;DHT22;2314;48.272;11.562;2023-02-28T10:05:52;1.70;99.90
4604;DHT22;2314;48.272;11.562;2023-02-28T10:08:25;1.80;99.90
4604;DHT22;2314;48.272;11.562;2023-02-28T10:10:55;1.80;99.90
4604;DHT22;2314;48.272;11.562;2023-02-28T10:13:29;2.10;99.90
4604;DHT22;2314;48.272;11.562;2023-02-28T10:16:03;2.10;99.90
4604;DHT22;2314;48.272;11.562;2023-02-28T10:18:39;2.10;99.90
4604;DHT22;2314;48.272;11.562;2023-02-28T10:21:18;2.30;99.90
4604;DHT22;2314;48.272;11.562;2023-02-28T10:23:56;2.50;99.90
4604;DHT22;2314;48.272;11.562;2023-02-28T10:26:31;2.80;99.90
4604;DHT22;2314;48.272;11.562;2023-02-28T10:28:59;3.10;99.90
4604;DHT22;2314;48.272;11.562;2023-02-28T10:31:28;3.10;99.90
4604;DHT22;2314;48.272;11.562;2023-02-28T10:33:55;3.10;99.90
4604;DHT22;2314;48.272;11.562;2023-02-28T10:36:22;3.20;99.90
4604;DHT22;2314;48.272;11.562;2023-02-28T10:38:51;3.20;99.90
4604;DHT22;2314;48.272;11.562;2023-02-28T10:41:28;3.30;99.90
4604;DHT22;2314;48.272;11.562;2023-02-28T10:44:14;3.40;99.90
4604;DHT22;2314;48.272;11.562;2023-02-28T10:46:45;3.40;99.90
4604;DHT22;2314;48.272;11.562;2023-02-28T10:49:15;3.50;99.90
4604;DHT22;2314;48.272;11.562;2023-02-28T10:51:45;3.60;99.90
4604;DHT22;2314;48.272;11.562;2023-02-28T10:54:19;3.80;99.90
4604;DHT22;2314;48.272;11.562;2023-02-28T10:57:06;4.00;99.90
4604;DHT22;2314;48.272;11.562;2023-02-28T10:59:35;4.10;99.90
4604;DHT22;2314;48.272;11.562;2023-02-28T11:02:31;3.60;99.90
4604;DHT22;2314;48.272;11.562;2023-02-28T11:04:59;3.70;99.90
4604;DHT22;2314;48.272;11.562;2023-02-28T11:07:27;3.70;99.90
4604;DHT22;2314;48.272;11.562;2023-02-28T11:09:57;3.80;99.90
4604;DHT22;2314;48.272;11.562;2023-02-28T11:12:28;3.70;99.90
4604;DHT22;2314;48.272;11.562;2023-02-28T11:15:06;4.10;99.90
4604;DHT22;2314;48.272;11.562;2023-02-28T11:17:53;4.20;99.90
4604;DHT22;2314;48.272;11.562;2023-02-28T11:20:23;4.30;99.90
4604;DHT22;2314;48.272;11.562;2023-02-28T11:22:54;4.20;99.90
4604;DHT22;2314;48.272;11.562;2023-02-28T11:25:25;4.50;99.90
4604;DHT22;2314;48.272;11.562;2023-02-28T11:27:54;4.70;99.90
4604;DHT22;2314;48.272;11.562;2023-02-28T11:30:25;4.70;99.90
4604;DHT22;2314;48.272;11.562;2023-02-28T11:32:54;5.00;99.80
4604;DHT22;2314;48.272;11.562;2023-02-28T11:35:26;4.70;99.40
4604;DHT22;2314;48.272;11.562;2023-02-28T11:37:55;4.70;99.90
4604;DHT22;2314;48.272;11.562;2023-02-28T11:40:30;4.40;99.10
4604;DHT22;2314;48.272;11.562;2023-02-28T11:43:09;4.40;99.90
4604;DHT22;2314;48.272;11.562;2023-02-28T11:46:00;4.20;99.90
4604;DHT22;2314;48.272;11.562;2023-02-28T11:48:42;4.20;99.90
4604;DHT22;2314;48.272;11.562;2023-02-28T11:51:20;4.50;99.90
4604;DHT22;2314;48.272;11.562;2023-02-28T11:54:03;4.30;99.90
4604;DHT22;2314;48.272;11.562;2023-02-28T11:56:44;4.10;99.90
4604;DHT22;2314;48.272;11.562;2023-02-28T11:59:35;4.30;99.90
4604;DHT22;2314;48.272;11.562;2023-02-28T12:02:23;4.30;99.90
4604;DHT22;2314;48.272;11.562;2023-02-28T12:05:05;4.50;99.90
4604;DHT22;2314;48.272;11.562;2023-02-28T12:07:49;4.40;99.90
4604;DHT22;2314;48.272;11.562;2023-02-28T12:10:26;4.40;99.90
4604;DHT22;2314;48.272;11.562;2023-02-28T12:13:12;4.40;99.90
4604;DHT22;2314;48.272;11.562;2023-02-28T12:16:18;4.30;99.90
4604;DHT22;2314;48.272;11.562;2023-02-28T12:19:18;4.00;99.90
4604;DHT22;2314;48.272;11.562;2023-02-28T12:22:00;4.20;99.90
4604;DHT22;2314;48.272;11.562;2023-02-28T12:24:47;4.00;99.90
4604;DHT22;2314;48.272;11.562;2023-02-28T12:27:24;3.80;99.90
4604;DHT22;2314;48.272;11.562;2023-02-28T12:29:58;3.80;99.90
4604;DHT22;2314;48.272;11.562;2023-02-28T12:32:32;3.70;99.90
4604;DHT22;2314;48.272;11.562;2023-02-28T12:35:06;3.80;99.90
4604;DHT22;2314;48.272;11.562;2023-02-28T12:37:41;3.90;99.90
4604;DHT22;2314;48.272;11.562;2023-02-28T12:40:13;4.00;99.90
4604;DHT22;2314;48.272;11.562;2023-02-28T12:42:48;4.10;99.90
4604;DHT22;2314;48.272;11.562;2023-02-28T12:45:20;4.20;99.90
4604;DHT22;2314;48.272;11.562;2023-02-28T12:47:54;4.30;99.90
4604;DHT22;2314;48.272;11.562;2023-02-28T12:50:24;4.60;99.90
4604;DHT22;2314;48.272;11.562;2023-02-28T12:52:56;4.60;99.70
4604;DHT22;2314;48.272;11.562;2023-02-28T12:55:31;4.40;99.90
4604;DHT22;2314;48.272;11.562;2023-02-28T12:58:09;4.10;99.90
4604;DHT22;2314;48.272;11.562;2023-02-28T13:00:50;4.30;99.90
4604;DHT22;2314;48.272;11.562;2023-02-28T13:07:06;3.80;99.90
4604;DHT22;2314;48.272;11.562;2023-02-28T13:09:38;3.70;99.90
4604;DHT22;2314;48.272;11.562;2023-02-28T13:12:13;3.60;99.90
4604;DHT22;2314;48.272;11.562;2023-02-28T13:14:41;3.80;99.90
4604;DHT22;2314;48.272;11.562;2023-02-28T13:17:15;3.80;99.90
4604;DHT22;2314;48.272;11.562;2023-02-28T13:19:56;3.80;99.90
4604;DHT22;2314;48.272;11.562;2023-02-28T13:22:39;3.70;99.90
4604;DHT22;2314;48.272;11.562;2023-02-28T13:25:50;3.60;99.90
4604;DHT22;2314;48.272;11.562;2023-02-28T13:32:27;3.40;99.90
4604;DHT22;2314;48.272;11.562;2023-02-28T13:38:24;3.30;99.90
4604;DHT22;2314;48.272;11.562;2023-02-28T13:44:22;3.50;99.90
4604;DHT22;2314;48.272;11.562;2023-02-28T13:47:29;3.40;99.90
4604;DHT22;2314;48.272;11.562;2023-02-28T13:50:24;3.20;99.90
4604;DHT22;2314;48.272;11.562;2023-02-28T13:56:04;3.20;99.90
4604;DHT22;2314;48.272;11.562;2023-02-28T13:58:46;3.50;99.90
4604;DHT22;2314;48.272;11.562;2023-02-28T14:01:29;3.40;99.90
4604;DHT22;2314;48.272;11.562;2023-02-28T14:04:27;3.40;99.90
4604;DHT22;2314;48.272;11.562;2023-02-28T14:07:20;3.30;99.90
4604;DHT22;2314;48.272;11.562;2023-02-28T14:09:55;3.50;99.90
4604;DHT22;2314;48.272;11.562;2023-02-28T14:12:53;3.40;99.90
4604;DHT22;2314;48.272;11.562;2023-02-28T14:15:46;3.50;99.90
4604;DHT22;2314;48.272;11.562;2023-02-28T14:18:21;3.90;99.90
4604;DHT22;2314;48.272;11.562;2023-02-28T14:20:56;4.00;99.90
4604;DHT22;2314;48.272;11.562;2023-02-28T14:23:46;4.00;99.90
4604;DHT22;2314;48.272;11.562;2023-02-28T14:30:20;4.00;99.90
4604;DHT22;2314;48.272;11.562;2023-02-28T14:33:03;4.00;99.90
4604;DHT22;2314;48.272;11.562;2023-02-28T14:35:49;4.10;99.90
4604;DHT22;2314;48.272;11.562;2023-02-28T14:38:29;4.00;99.90
4604;DHT22;2314;48.272;11.562;2023-02-28T14:41:01;3.90;99.90
4604;DHT22;2314;48.272;11.562;2023-02-28T14:43:49;4.00;99.90
4604;DHT22;2314;48.272;11.562;2023-02-28T14:46:22;4.10;99.90
4604;DHT22;2314;48.272;11.562;2023-02-28T14:48:51;4.00;99.90
4604;DHT22;2314;48.272;11.562;2023-02-28T14:51:21;4.20;99.90
4604;DHT22;2314;48.272;11.562;2023-02-28T14:53:52;4.20;99.90
4604;DHT22;2314;48.272;11.562;2023-02-28T14:56:24;4.00;99.90
4604;DHT22;2314;48.272;11.562;2023-02-28T14:58:56;4.00;99.90
4604;DHT22;2314;48.272;11.562;2023-02-28T15:01:25;4.00;99.90
4604;DHT22;2314;48.272;11.562;2023-02-28T15:04:01;4.10;99.90
4604;DHT22;2314;48.272;11.562;2023-02-28T15:10:16;4.30;99.90
4604;DHT22;2314;48.272;11.562;2023-02-28T15:12:51;4.20;99.90
4604;DHT22;2314;48.272;11.562;2023-02-28T15:15:21;4.10;99.90
4604;DHT22;2314;48.272;11.562;2023-02-28T15:17:52;4.00;99.90
4604;DHT22;2314;48.272;11.562;2023-02-28T15:20:21;3.90;99.90
4604;DHT22;2314;48.272;11.562;2023-02-28T15:22:52;3.70;99.90
4604;DHT22;2314;48.272;11.562;2023-02-28T15:25:23;3.50;99.90
4604;DHT22;2314;48.272;11.562;2023-02-28T15:27:53;3.30;99.90
4604;DHT22;2314;48.272;11.562;2023-02-28T15:30:23;3.20;99.90
4604;DHT22;2314;48.272;11.562;2023-02-28T15:33:07;3.10;99.90
4604;DHT22;2314;48.272;11.562;2023-02-28T15:35:45;3.10;99.90
4604;DHT22;2314;48.272;11.562;2023-02-28T15:38:17;3.20;99.90
4604;DHT22;2314;48.272;11.562;2023-02-28T15:40:51;3.30;99.90
4604;DHT22;2314;48.272;11.562;2023-02-28T15:43:26;3.30;99.90
4604;DHT22;2314;48.272;11.562;2023-02-28T15:45:57;3.20;99.90
4604;DHT22;2314;48.272;11.562;2023-02-28T15:48:27;3.20;99.90
4604;DHT22;2314;48.272;11.562;2023-02-28T15:50:57;3.20;99.90
4604;DHT22;2314;48.272;11.562;2023-02-28T15:53:32;3.10;99.90
4604;DHT22;2314;48.272;11.562;2023-02-28T15:56:04;3.20;99.90
4604;DHT22;2314;48.272;11.562;2023-02-28T15:58:33;3.20;99.90
4604;DHT22;2314;48.272;11.562;2023-02-28T16:01:08;3.10;99.90
4604;DHT22;2314;48.272;11.562;2023-02-28T16:03:46;3.10;99.90
4604;DHT22;2314;48.272;11.562;2023-02-28T16:06:34;3.00;99.90
4604;DHT22;2314;48.272;11.562;2023-02-28T16:09:05;3.00;99.90
4604;DHT22;2314;48.272;11.562;2023-02-28T16:11:37;2.90;99.90
4604;DHT22;2314;48.272;11.562;2023-02-28T16:14:08;2.80;99.90
4604;DHT22;2314;48.272;11.562;2023-02-28T16:16:42;2.70;99.90
4604;DHT22;2314;48.272;11.562;2023-02-28T16:19:10;2.70;99.90
4604;DHT22;2314;48.272;11.562;2023-02-28T16:21:37;2.60;99.90
4604;DHT22;2314;48.272;11.562;2023-02-28T16:24:04;2.50;99.90
4604;DHT22;2314;48.272;11.562;2023-02-28T16:26:33;2.40;99.90
4604;DHT22;2314;48.272;11.562;2023-02-28T16:29:01;2.40;99.90
4604;DHT22;2314;48.272;11.562;2023-02-28T16:31:28;2.40;99.90
4604;DHT22;2314;48.272;11.562;2023-02-28T16:33:55;2.30;99.90
4604;DHT22;2314;48.272;11.562;2023-02-28T16:36:23;2.20;99.90
4604;DHT22;2314;48.272;11.562;2023-02-28T16:38:51;2.10;99.90
4604;DHT22;2314;48.272;11.562;2023-02-28T16:41:20;2.10;99.90
4604;DHT22;2314;48.272;11.562;2023-02-28T16:43:51;2.00;99.90
4604;DHT22;2314;48.272;11.562;2023-02-28T16:46:25;1.90;99.90
4604;DHT22;2314;48.272;11.562;2023-02-28T16:48:54;1.90;99.90
4604;DHT22;2314;48.272;11.562;2023-02-28T16:51:21;1.80;99.90
4604;DHT22;2314;48.272;11.562;2023-02-28T16:53:48;1.80;99.90
4604;DHT22;2314;48.272;11.562;2023-02-28T16:56:17;1.70;99.90